Steele City, Nebraska
Current Conditions -  °F | °C
As of 6:15 AM on Tuesday 27 Jan 2015 (Local Time) from KBIE Reporting Station
Clear Clear  
Wind Chill: 25°   Ceiling: Unl
Heat Index: 25°   Visibility: 10mi
Dew Point: 22°   Wind: 0mph
Humidity: 89%   Direction: NA
Pressure: 30.08"   Gusts: NA
Location:  40.04°N, 97.02°W
Report Text: KBIE 271215Z AUTO 00000KT 10SM CLR M04/M06 A3008 RMK AO2 T10401056
Loading
Personal Weather Stations






























Interactive Weather Map New forecast layout! Learn more

10-Day Weather Forecast

Advertisements
Track Severe Weather on mobile